Terminal Aerodrome Forecast
Issued by NWS Shreveport, LA

Home | Current Version | Previous Version | Text Only | Print | Product List | Glossary On
Versions: 1 2 3 4 5 6 7 8 9 10 11 12 13 14 15
802
FTUS44 KSHV 091120
TAFTYR
TAF
KTYR 091120Z 0912/1012 27007KT P6SM SKC
     FM091500 32014G24KT P6SM SKC
     FM092300 32008KT P6SM SKC
     FM100000 30003KT P6SM SKC=

USA.gov is the U.S. government's official web portal to all federal, state and local government web resources and services.